Time;durP1;ratioP1;P1;durP2;ratioP2;P2;SDS_P1;SDS_P2;PMS_P1;PMS_P2;Temp;Humidity;BMP_temperature;BMP_pressure;BME280_temperature;BME280_humidity;BME280_pressure;Samples;Min_cycle;Max_cycle;Signal;HPM_P1;HPM_P2
2022/04/13 00:01:52;;;;;;;6.43;3.10;;;;;;;12.37;45.56;95954.31;5022227;28;20571;-81
2022/04/13 00:04:18;;;;;;;8.73;3.10;;;;;;;12.41;45.25;95950.34;5012974;28;20029;-80
2022/04/13 00:06:44;;;;;;;7.13;2.83;;;;;;;12.41;45.37;95951.16;5055969;28;20032;-80
2022/04/13 00:09:10;;;;;;;7.27;3.63;;;;;;;12.38;45.40;95946.22;5053622;28;20749;-80
2022/04/13 00:11:36;;;;;;;6.57;2.70;;;;;;;12.30;46.10;95946.28;5051306;28;20057;-80
2022/04/13 00:14:03;;;;;;;6.60;3.37;;;;;;;12.31;45.33;95950.56;5036599;28;20041;-80
2022/04/13 00:16:29;;;;;;;5.93;3.00;;;;;;;12.39;45.14;95949.69;5022417;28;20044;-80
2022/04/13 00:18:55;;;;;;;7.43;3.50;;;;;;;12.40;45.04;95943.41;5021803;28;20074;-80
2022/04/13 00:21:21;;;;;;;5.67;3.03;;;;;;;12.27;45.87;95939.56;5036473;28;20693;-80
2022/04/13 00:23:47;;;;;;;9.40;3.60;;;;;;;12.20;46.11;95937.78;5035975;28;20040;-80
2022/04/13 00:26:12;;;;;;;9.57;3.47;;;;;;;12.27;45.64;95936.09;5025558;28;20040;-80
2022/04/13 00:28:38;;;;;;;7.50;3.07;;;;;;;12.33;45.54;95930.09;5027467;28;20036;-80
2022/04/13 00:31:04;;;;;;;6.73;2.90;;;;;;;12.31;45.31;95932.13;5024658;28;20066;-80
2022/04/13 00:33:30;;;;;;;6.90;3.43;;;;;;;12.29;45.67;95928.81;5036859;28;20104;-81
2022/04/13 00:35:57;;;;;;;7.37;3.30;;;;;;;12.20;45.81;95930.69;5025040;28;20037;-80
2022/04/13 00:38:22;;;;;;;9.30;3.77;;;;;;;12.08;46.60;95926.03;5023574;28;20034;-80
2022/04/13 00:40:49;;;;;;;6.30;3.20;;;;;;;11.78;48.19;95926.69;5021128;28;20398;-80
2022/04/13 00:43:15;;;;;;;7.20;3.43;;;;;;;11.64;48.88;95929.25;5026155;28;20206;-80
2022/04/13 00:45:45;;;;;;;6.03;3.13;;;;;;;11.52;49.61;95926.97;5037043;28;20467;-80
2022/04/13 00:48:28;;;;;;;8.60;3.33;;;;;;;11.43;49.48;95921.94;5039239;28;20292;-80
2022/04/13 00:50:54;;;;;;;7.85;3.35;;;;;;;11.28;50.43;95925.28;5036591;28;20029;-81
2022/04/13 00:53:21;;;;;;;5.97;2.77;;;;;;;11.20;50.48;95927.13;5037552;28;20097;-81
2022/04/13 00:55:48;;;;;;;9.23;3.40;;;;;;;11.20;50.56;95927.13;5022313;28;20025;-80
2022/04/13 00:58:17;;;;;;;9.10;3.20;;;;;;;11.17;50.66;95930.94;5040497;28;20033;-82
2022/04/13 01:00:48;;;;;;;6.87;2.67;;;;;;;11.07;50.92;95931.13;5021100;28;20129;-80
2022/04/13 01:03:24;;;;;;;8.93;3.20;;;;;;;10.99;51.24;95925.88;5016404;28;20385;-80
2022/04/13 01:05:51;;;;;;;5.17;2.63;;;;;;;11.02;51.56;95925.53;5045475;28;20393;-80
2022/04/13 01:08:18;;;;;;;8.03;2.73;;;;;;;11.02;51.64;95930.00;5039353;28;20143;-80
2022/04/13 01:10:45;;;;;;;6.50;3.23;;;;;;;11.00;51.53;95924.06;5040769;28;20098;-81
2022/04/13 01:13:12;;;;;;;6.03;2.83;;;;;;;11.02;51.57;95930.81;5037530;28;20779;-81
2022/04/13 01:15:38;;;;;;;6.80;2.97;;;;;;;11.05;51.44;95929.66;5020115;28;20121;-80
2022/04/13 01:18:04;;;;;;;6.03;2.83;;;;;;;11.12;50.53;95930.63;5042741;28;20052;-80
2022/04/13 01:20:30;;;;;;;5.37;2.60;;;;;;;11.31;48.90;95932.03;5035928;28;20414;-80
2022/04/13 01:22:56;;;;;;;7.33;3.13;;;;;;;11.50;48.84;95936.88;5034053;28;20051;-80
2022/04/13 01:25:22;;;;;;;5.93;2.83;;;;;;;11.55;47.76;95933.72;5055014;28;20036;-80
2022/04/13 01:27:48;;;;;;;7.43;3.07;;;;;;;11.57;47.83;95929.94;5055508;28;20835;-81
2022/04/13 01:30:15;;;;;;;7.70;3.47;;;;;;;11.56;48.35;95936.19;5053477;28;20085;-80
2022/04/13 01:32:41;;;;;;;7.40;3.27;;;;;;;11.56;48.14;95938.81;5026564;28;20037;-80
2022/04/13 01:35:07;;;;;;;10.77;2.80;;;;;;;11.51;48.06;95938.53;5032436;28;20043;-80
2022/04/13 01:37:34;;;;;;;6.50;3.40;;;;;;;11.59;47.32;95935.00;5055686;28;20028;-81
2022/04/13 01:40:00;;;;;;;6.53;3.33;;;;;;;11.50;48.18;95934.25;5032758;28;20112;-80
2022/04/13 01:42:26;;;;;;;9.00;3.47;;;;;;;11.48;48.07;95933.59;5020956;28;20116;-81
2022/04/13 01:44:53;;;;;;;6.70;3.10;;;;;;;11.42;48.58;95936.09;5052009;28;20765;-80
2022/04/13 01:47:18;;;;;;;8.43;3.10;;;;;;;11.34;48.82;95942.22;5021547;28;20047;-80
2022/04/13 01:49:44;;;;;;;8.73;3.17;;;;;;;11.42;48.28;95930.84;5041722;28;20401;-80
2022/04/13 01:52:11;;;;;;;6.23;2.73;;;;;;;11.41;48.06;95940.53;5017346;28;20037;-80
2022/04/13 01:54:37;;;;;;;9.13;3.63;;;;;;;11.57;47.19;95945.75;5020523;28;20482;-79
2022/04/13 01:57:03;;;;;;;9.87;3.20;;;;;;;11.41;48.05;95945.81;5037920;28;20032;-80
2022/04/13 01:59:29;;;;;;;7.93;4.00;;;;;;;11.32;48.88;95949.47;5037402;28;20064;-80
2022/04/13 02:01:55;;;;;;;6.93;3.07;;;;;;;11.19;49.69;95941.28;5027915;28;20060;-80
2022/04/13 02:04:23;;;;;;;5.60;2.90;;;;;;;11.18;49.82;95948.38;5039315;28;20033;-81
2022/04/13 02:06:50;;;;;;;5.60;2.73;;;;;;;11.18;50.21;95944.91;5033749;28;20264;-80
2022/04/13 02:09:17;;;;;;;7.03;3.07;;;;;;;10.99;51.55;95951.38;5036356;28;20052;-80
2022/04/13 02:11:43;;;;;;;11.27;2.90;;;;;;;10.92;52.79;95956.50;5031616;28;20037;-82
2022/04/13 02:14:09;;;;;;;7.27;3.00;;;;;;;10.83;52.23;95957.50;5036291;28;20032;-80
2022/04/13 02:16:36;;;;;;;7.57;2.70;;;;;;;10.78;52.58;95951.94;5022175;28;20068;-81
2022/04/13 02:19:02;;;;;;;9.40;4.57;;;;;;;10.80;52.25;95957.84;5040716;28;20039;-80
2022/04/13 02:21:28;;;;;;;6.90;3.37;;;;;;;10.80;52.41;95947.31;5021700;28;20024;-82
2022/04/13 02:23:54;;;;;;;5.93;2.97;;;;;;;10.77;52.99;95947.66;5027448;28;20029;-80
2022/04/13 02:26:19;;;;;;;8.17;2.77;;;;;;;10.78;52.70;95944.84;5039795;28;20036;-80
2022/04/13 02:28:46;;;;;;;9.73;2.57;;;;;;;10.64;53.10;95952.59;5026176;28;20024;-80
2022/04/13 02:31:12;;;;;;;7.67;2.77;;;;;;;10.62;53.62;95948.31;5040020;28;20122;-80
2022/04/13 02:33:39;;;;;;;6.40;2.77;;;;;;;10.63;53.80;95949.16;5042955;28;20033;-80
2022/04/13 02:36:05;;;;;;;11.17;2.90;;;;;;;10.62;53.88;95948.31;5044082;28;20081;-81
2022/04/13 02:38:31;;;;;;;4.87;2.30;;;;;;;10.59;55.51;95946.03;5032962;28;20029;-80
2022/04/13 02:40:56;;;;;;;7.00;2.70;;;;;;;10.61;53.75;95944.06;5036143;28;20510;-81
2022/04/13 02:43:24;;;;;;;6.27;2.80;;;;;;;10.60;52.64;95937.16;5045731;28;20037;-80
2022/04/13 02:45:50;;;;;;;9.33;2.67;;;;;;;10.57;52.66;95942.75;5023504;28;20049;-81
2022/04/13 02:48:16;;;;;;;5.50;2.60;;;;;;;10.58;52.67;95939.13;5029825;28;20101;-80
2022/04/13 02:50:42;;;;;;;5.77;2.77;;;;;;;10.60;51.87;95945.06;5032551;28;20029;-81
2022/04/13 02:53:09;;;;;;;7.27;2.90;;;;;;;10.58;51.71;95944.38;5028036;28;20025;-80
2022/04/13 02:55:34;;;;;;;8.57;3.37;;;;;;;10.60;51.75;95941.59;5056392;28;20048;-80
2022/04/13 02:58:00;;;;;;;8.03;3.03;;;;;;;10.60;51.50;95942.41;5074211;28;20037;-80
2022/04/13 03:00:26;;;;;;;6.60;3.00;;;;;;;10.62;51.66;95944.88;5030230;28;20057;-80
2022/04/13 03:02:53;;;;;;;7.03;2.63;;;;;;;10.55;52.26;95943.91;5028571;28;20040;-80
2022/04/13 03:05:18;;;;;;;6.17;3.03;;;;;;;10.56;51.84;95941.13;5023416;28;20037;-80
2022/04/13 03:07:44;;;;;;;6.80;3.20;;;;;;;10.57;51.53;95945.38;5036603;28;20100;-80
2022/04/13 03:10:11;;;;;;;5.60;2.80;;;;;;;10.60;50.87;95941.59;5030153;28;20039;-80
2022/04/13 03:12:37;;;;;;;7.50;3.00;;;;;;;10.49;51.63;95945.38;5041641;28;20037;-80
2022/04/13 03:15:07;;;;;;;5.33;2.80;;;;;;;10.56;51.28;95941.13;5020617;28;20126;-80
2022/04/13 03:17:33;;;;;;;6.60;2.60;;;;;;;10.57;51.35;95948.00;5047632;28;20132;-79
2022/04/13 03:19:58;;;;;;;6.10;2.90;;;;;;;10.55;51.23;95943.91;5030073;28;20052;-82
2022/04/13 03:22:25;;;;;;;6.70;3.00;;;;;;;10.53;51.49;95941.44;5028528;28;20089;-80
2022/04/13 03:24:54;;;;;;;6.73;3.10;;;;;;;10.55;51.18;95943.91;5019132;28;20059;-80
2022/04/13 03:27:19;;;;;;;7.63;2.83;;;;;;;10.47;51.84;95941.28;5047919;28;20028;-80
2022/04/13 03:29:46;;;;;;;5.43;2.63;;;;;;;10.53;50.88;95945.84;5058762;28;20033;-80
2022/04/13 03:32:11;;;;;;;7.00;3.63;;;;;;;10.49;51.47;95941.94;5064891;28;20144;-80
2022/04/13 03:34:37;;;;;;;9.97;2.97;;;;;;;10.50;50.17;95944.41;5042505;28;20126;-80
2022/04/13 03:37:03;;;;;;;7.80;3.10;;;;;;;10.48;50.80;95938.47;5044217;28;20043;-80
2022/04/13 03:39:29;;;;;;;6.83;3.30;;;;;;;10.34;51.80;95939.16;5054138;28;20033;-80
2022/04/13 03:41:55;;;;;;;6.30;2.97;;;;;;;10.29;51.65;95941.44;5036374;28;20032;-80
2022/04/13 03:44:21;;;;;;;7.17;2.97;;;;;;;10.18;52.08;95942.56;5034528;28;20033;-80
2022/04/13 03:46:48;;;;;;;5.37;2.67;;;;;;;10.18;52.26;95949.63;5024389;28;20064;-80
2022/04/13 03:49:14;;;;;;;6.93;4.10;;;;;;;10.12;52.85;95944.03;5032545;28;20036;-80
2022/04/13 03:51:40;;;;;;;10.33;2.70;;;;;;;9.98;53.37;95952.56;5046392;28;20066;-80
2022/04/13 03:54:06;;;;;;;6.47;2.53;;;;;;;9.90;53.65;95956.00;5029256;28;20057;-79
2022/04/13 03:56:33;;;;;;;7.20;3.00;;;;;;;9.91;53.31;95962.91;5051934;28;20025;-80
2022/04/13 03:59:00;;;;;;;5.70;2.53;;;;;;;9.88;53.12;95962.41;5038216;28;20093;-80
2022/04/13 04:01:27;;;;;;;4.43;2.40;;;;;;;9.86;53.50;95962.56;5070778;28;20097;-80
2022/04/13 04:03:53;;;;;;;7.10;2.87;;;;;;;9.65;54.40;95964.81;5035095;28;20389;-80
2022/04/13 04:06:19;;;;;;;6.03;2.93;;;;;;;9.61;54.75;95968.75;5068655;28;20032;-80
2022/04/13 04:08:45;;;;;;;6.90;2.93;;;;;;;9.61;54.45;95968.75;5033515;28;20033;-80
2022/04/13 04:11:11;;;;;;;6.80;2.57;;;;;;;9.63;54.48;95967.59;5051950;28;20024;-80
2022/04/13 04:13:37;;;;;;;12.63;3.33;;;;;;;9.68;54.23;95973.19;5046651;28;20183;-80
2022/04/13 04:16:03;;;;;;;8.73;3.50;;;;;;;9.59;54.68;95971.53;5033437;28;20013;-80
2022/04/13 04:18:29;;;;;;;5.47;2.50;;;;;;;9.55;54.83;95972.81;5045002;28;20501;-80
2022/04/13 04:20:55;;;;;;;7.73;3.07;;;;;;;9.51;55.26;95982.00;5040304;28;20029;-81
2022/04/13 04:23:21;;;;;;;7.47;2.90;;;;;;;9.47;55.78;95988.53;5048640;28;20045;-80
2022/04/13 04:25:47;;;;;;;7.87;4.23;;;;;;;9.50;55.06;95996.09;5048469;28;20022;-80
2022/04/13 04:28:13;;;;;;;8.57;4.10;;;;;;;9.44;55.46;95994.94;5034907;28;20044;-80
2022/04/13 04:30:39;;;;;;;7.80;3.90;;;;;;;9.43;55.26;95995.09;5034475;28;21007;-80
2022/04/13 04:33:06;;;;;;;8.63;3.50;;;;;;;9.39;54.93;95997.22;5044682;28;20033;-80
2022/04/13 04:35:33;;;;;;;7.97;3.63;;;;;;;9.35;56.28;95995.03;5033012;28;20025;-80
2022/04/13 04:37:59;;;;;;;8.87;4.33;;;;;;;9.33;55.70;95997.84;5029171;28;20024;-80
2022/04/13 04:40:26;;;;;;;10.47;4.67;;;;;;;9.38;55.49;95999.97;5043550;28;20094;-80
2022/04/13 04:42:52;;;;;;;9.93;4.87;;;;;;;9.23;56.26;96005.00;5040315;28;20024;-80
2022/04/13 04:45:21;;;;;;;9.20;4.23;;;;;;;9.20;56.38;96002.69;5034117;28;20033;-80
2022/04/13 04:47:50;;;;;;;12.43;4.60;;;;;;;9.27;55.36;96000.28;5049647;28;20064;-80
2022/04/13 04:50:17;;;;;;;14.63;6.30;;;;;;;9.25;55.65;95996.97;5031602;28;20021;-82
2022/04/13 04:52:45;;;;;;;11.50;5.33;;;;;;;9.34;55.08;95996.03;5050037;28;20508;-80
2022/04/13 04:55:12;;;;;;;10.27;4.40;;;;;;;9.33;55.17;95997.84;5051541;28;20035;-80
2022/04/13 04:57:38;;;;;;;10.13;4.53;;;;;;;9.27;55.42;95997.66;5051376;28;20025;-80
2022/04/13 05:00:10;;;;;;;8.43;4.00;;;;;;;9.25;55.83;96004.84;5038654;28;20040;-82
2022/04/13 05:02:37;;;;;;;8.80;3.90;;;;;;;9.21;55.39;96005.16;5031034;28;20236;-80
2022/04/13 05:05:04;;;;;;;8.40;3.93;;;;;;;9.26;55.83;96014.38;5047309;28;20037;-81
2022/04/13 05:07:30;;;;;;;7.73;3.90;;;;;;;9.24;56.12;96017.13;5034488;28;20021;-79
2022/04/13 05:09:56;;;;;;;9.03;4.30;;;;;;;9.16;56.63;96025.78;5013053;28;20106;-81
2022/04/13 05:12:21;;;;;;;13.07;5.27;;;;;;;9.21;56.34;96022.69;5016838;28;20033;-80
2022/04/13 05:14:47;;;;;;;9.77;4.80;;;;;;;9.21;56.83;96020.88;5019239;28;20032;-80
2022/04/13 05:17:14;;;;;;;9.73;3.93;;;;;;;9.21;57.46;96023.50;5022691;28;20044;-80
2022/04/13 05:19:40;;;;;;;9.30;4.17;;;;;;;9.26;58.15;96019.63;5034018;28;20041;-80
2022/04/13 05:22:05;;;;;;;9.13;3.40;;;;;;;9.31;58.51;96022.59;5012954;28;20534;-80
2022/04/13 05:24:31;;;;;;;10.37;4.27;;;;;;;9.35;58.51;96018.66;5034289;28;20040;-81
2022/04/13 05:26:57;;;;;;;8.87;3.97;;;;;;;9.41;58.19;96007.53;5020733;28;20030;-81
2022/04/13 05:29:23;;;;;;;9.33;4.37;;;;;;;9.49;57.12;96015.47;5030393;28;20032;-80
2022/04/13 05:31:48;;;;;;;10.63;5.23;;;;;;;9.67;56.21;96010.94;5053457;28;20071;-80
2022/04/13 05:34:14;;;;;;;8.67;5.20;;;;;;;9.71;55.79;96018.50;5035103;28;20064;-80
2022/04/13 05:36:40;;;;;;;12.40;5.17;;;;;;;9.88;55.04;96015.75;5035809;28;20029;-81
2022/04/13 05:39:05;;;;;;;10.27;4.90;;;;;;;9.99;54.34;96017.25;5040941;28;20039;-80
2022/04/13 05:41:31;;;;;;;9.13;4.10;;;;;;;9.92;54.47;96016.25;5036274;28;20047;-80
2022/04/13 05:43:57;;;;;;;10.13;4.50;;;;;;;10.13;53.72;96021.91;5035855;28;20032;-80
2022/04/13 05:46:23;;;;;;;8.93;4.60;;;;;;;10.16;53.59;96018.13;5014798;28;20045;-80
2022/04/13 05:48:48;;;;;;;7.47;4.07;;;;;;;10.42;52.61;96028.53;5058539;28;20124;-80
2022/04/13 05:51:15;;;;;;;8.03;3.90;;;;;;;10.51;52.31;96024.09;5034898;28;20059;-80
2022/04/13 05:53:41;;;;;;;7.87;3.87;;;;;;;10.59;51.98;96021.47;5018764;28;20035;-80
2022/04/13 05:56:07;;;;;;;8.83;4.87;;;;;;;10.66;52.86;96027.69;5046263;28;20029;-80
2022/04/13 05:58:32;;;;;;;9.37;4.37;;;;;;;11.01;51.73;96025.72;5025775;28;20080;-80
2022/04/13 06:00:58;;;;;;;10.97;3.93;;;;;;;10.92;51.75;96031.97;5019121;28;20047;-80
2022/04/13 06:03:24;;;;;;;9.17;4.27;;;;;;;11.28;51.64;96027.97;5019118;28;20071;-80
2022/04/13 06:05:50;;;;;;;11.20;4.30;;;;;;;11.40;52.03;96028.44;5032016;28;20041;-80
2022/04/13 06:08:17;;;;;;;7.50;3.80;;;;;;;11.48;52.70;96032.84;5028757;28;20046;-80
2022/04/13 06:10:43;;;;;;;8.53;4.07;;;;;;;11.68;52.25;96036.72;5028048;28;20075;-79
2022/04/13 06:13:09;;;;;;;9.23;4.20;;;;;;;11.62;53.78;96033.94;5015561;28;20063;-79
2022/04/13 06:15:35;;;;;;;8.23;4.93;;;;;;;11.77;53.66;96042.78;5017070;28;20032;-81
2022/04/13 06:18:01;;;;;;;10.77;4.80;;;;;;;11.61;55.09;96042.84;5023113;28;20045;-81
2022/04/13 06:20:26;;;;;;;10.40;4.40;;;;;;;11.73;53.50;96044.91;5022756;28;20048;-81
2022/04/13 06:22:52;;;;;;;10.63;5.23;;;;;;;11.78;54.00;96041.78;5010228;28;21100;-80
2022/04/13 06:25:19;;;;;;;10.37;5.07;;;;;;;11.80;52.98;96040.63;5023032;28;20086;-81
2022/04/13 06:27:45;;;;;;;11.20;4.80;;;;;;;12.26;52.07;96039.91;5003794;28;20087;-83
2022/04/13 06:30:12;;;;;;;8.67;5.30;;;;;;;13.10;50.48;96034.63;5010007;28;20108;-83
2022/04/13 06:32:40;;;;;;;7.60;4.27;;;;;;;13.41;50.79;96034.50;5010940;28;20051;-80
2022/04/13 06:35:08;;;;;;;7.87;4.67;;;;;;;13.58;50.28;96030.72;5016265;28;20048;-80
2022/04/13 06:37:39;;;;;;;10.23;4.33;;;;;;;13.89;49.18;96030.50;5026119;28;20637;-78
2022/04/13 06:40:06;;;;;;;10.20;5.03;;;;;;;13.99;49.41;96030.19;5045960;28;20025;-81
2022/04/13 06:42:39;;;;;;;9.13;4.43;;;;;;;14.46;48.20;96033.38;5004883;28;20041;-81
2022/04/13 06:45:06;;;;;;;10.27;4.93;;;;;;;14.39;47.34;96036.75;5023195;28;20040;-81
2022/04/13 06:47:32;;;;;;;9.17;4.63;;;;;;;15.15;46.61;96035.41;5022799;28;20253;-82
2022/04/13 06:49:59;;;;;;;9.80;4.77;;;;;;;15.51;46.13;96038.72;5024092;28;20040;-83
2022/04/13 06:52:26;;;;;;;8.30;4.77;;;;;;;15.69;45.10;96038.25;5003421;28;20567;-81
2022/04/13 06:54:52;;;;;;;9.27;4.90;;;;;;;15.67;45.01;96040.28;5007777;28;20044;-81
2022/04/13 06:57:18;;;;;;;9.30;4.90;;;;;;;15.93;45.44;96036.13;5023840;28;20048;-81
2022/04/13 06:59:43;;;;;;;9.93;5.73;;;;;;;15.30;47.06;96042.25;5020561;28;20035;-81
2022/04/13 07:02:12;;;;;;;10.90;4.53;;;;;;;15.52;45.70;96039.53;5005961;28;20441;-80
2022/04/13 07:04:39;;;;;;;11.07;5.67;;;;;;;15.75;45.42;96045.41;5019607;28;20052;-80
2022/04/13 07:07:05;;;;;;;10.80;5.03;;;;;;;15.73;45.85;96042.13;5018551;28;20533;-81
2022/04/13 07:09:31;;;;;;;10.43;5.87;;;;;;;17.06;43.36;96034.53;5017909;28;20041;-81
2022/04/13 07:11:58;;;;;;;11.93;5.43;;;;;;;16.95;42.99;96043.13;4999652;28;20083;-80
2022/04/13 07:14:24;;;;;;;12.98;5.43;;;;;;;16.76;43.51;96039.44;5004653;28;20109;-81
2022/04/13 07:16:50;;;;;;;10.23;5.60;;;;;;;16.21;44.08;96043.97;5006699;28;20029;-80
2022/04/13 07:19:16;;;;;;;9.18;4.80;;;;;;;17.26;42.60;96044.34;5016821;28;20041;-80
2022/04/13 07:21:42;;;;;;;9.38;4.93;;;;;;;17.37;41.81;96049.03;5015583;28;20034;-81
2022/04/13 07:24:08;;;;;;;10.73;5.60;;;;;;;17.60;41.53;96052.06;5018521;28;20075;-80
2022/04/13 07:26:33;;;;;;;8.80;5.07;;;;;;;17.00;43.39;96053.13;5026825;28;20036;-80
2022/04/13 07:28:59;;;;;;;11.05;5.32;;;;;;;17.55;42.42;96048.41;5012742;28;20053;-81
2022/04/13 07:31:25;;;;;;;10.00;5.15;;;;;;;18.48;40.53;96051.59;5023161;28;20048;-81
2022/04/13 07:33:51;;;;;;;8.85;4.45;;;;;;;17.55;40.92;96062.53;5035765;28;20059;-81
2022/04/13 07:36:17;;;;;;;13.02;5.50;;;;;;;18.81;39.38;96054.09;5019469;28;20037;-81
2022/04/13 07:38:42;;;;;;;11.63;5.20;;;;;;;19.07;39.70;96050.41;5009407;28;20033;-80
2022/04/13 07:41:08;;;;;;;8.70;4.85;;;;;;;18.69;40.25;96047.78;5048294;28;20081;-80
2022/04/13 07:43:34;;;;;;;9.68;4.63;;;;;;;18.23;40.18;96064.00;5044356;28;20033;-81
2022/04/13 07:45:59;;;;;;;10.30;5.30;;;;;;;18.95;40.07;96057.47;5021774;28;20041;-82
2022/04/13 07:48:25;;;;;;;10.25;5.40;;;;;;;18.86;39.78;96056.09;5008894;28;20045;-82
2022/04/13 07:50:51;;;;;;;9.57;4.90;;;;;;;19.67;38.86;96052.56;5022710;28;20681;-80
2022/04/13 07:53:17;;;;;;;8.45;4.95;;;;;;;20.74;37.33;96054.81;5022622;28;20048;-80
2022/04/13 07:55:42;;;;;;;10.35;5.28;;;;;;;20.24;37.83;96055.03;5005395;28;20106;-80
2022/04/13 07:58:08;;;;;;;10.10;5.43;;;;;;;20.83;36.37;96063.31;5027345;28;20570;-82
2022/04/13 08:00:34;;;;;;;16.30;5.60;;;;;;;20.85;36.54;96058.56;5028603;28;20386;-81
2022/04/13 08:03:00;;;;;;;9.10;5.28;;;;;;;21.66;36.20;96062.41;5049513;28;20029;-81
2022/04/13 08:05:26;;;;;;;11.23;5.22;;;;;;;21.37;36.87;96064.97;5011424;28;20045;-81
2022/04/13 08:07:51;;;;;;;11.18;6.15;;;;;;;21.37;35.93;96062.28;5024527;28;20485;-82
2022/04/13 08:10:17;;;;;;;9.05;4.97;;;;;;;21.12;36.73;96069.66;5003889;28;20071;-81
2022/04/13 08:12:46;;;;;;;13.25;8.40;;;;;;;21.42;36.29;96062.41;5007446;28;20036;-81
2022/04/13 08:15:14;;;;;;;9.05;6.20;;;;;;;21.93;35.39;96069.94;5019713;28;20065;-80
2022/04/13 08:17:40;;;;;;;10.10;6.07;;;;;;;21.59;35.76;96067.06;5021473;28;20159;-80
2022/04/13 08:20:11;;;;;;;10.68;5.65;;;;;;;21.50;35.95;96063.94;5013936;28;20548;-80
2022/04/13 08:22:38;;;;;;;9.18;5.13;;;;;;;21.15;36.23;96072.69;5034626;28;20112;-80
2022/04/13 08:25:04;;;;;;;9.07;5.43;;;;;;;20.63;36.69;96068.94;5019534;28;20694;-80
2022/04/13 08:27:32;;;;;;;8.32;4.85;;;;;;;21.34;35.77;96069.94;5016586;28;20025;-81
2022/04/13 08:29:58;;;;;;;8.82;4.97;;;;;;;21.63;35.35;96068.25;5047212;28;20114;-80
2022/04/13 08:32:24;;;;;;;14.65;6.10;;;;;;;21.40;35.25;96071.72;5034184;28;20076;-80
2022/04/13 08:34:53;;;;;;;11.90;4.85;;;;;;;21.63;35.56;96070.94;5021255;28;20085;-80
2022/04/13 08:37:20;;;;;;;8.57;4.60;;;;;;;22.02;34.08;96068.56;5019022;28;20048;-80
2022/04/13 08:39:45;;;;;;;9.05;4.82;;;;;;;21.78;34.54;96081.97;5019745;28;20116;-80
2022/04/13 08:42:14;;;;;;;8.30;4.78;;;;;;;21.47;34.66;96080.44;5009485;28;20132;-83
2022/04/13 08:44:46;;;;;;;7.75;4.43;;;;;;;22.15;34.17;96080.88;5036937;28;20029;-79
2022/04/13 08:47:15;;;;;;;8.07;4.10;;;;;;;21.80;34.35;96090.59;5008310;28;20037;-80
2022/04/13 08:49:43;;;;;;;8.27;4.60;;;;;;;22.70;32.49;96083.06;5024936;28;20068;-81
2022/04/13 08:52:12;;;;;;;14.88;5.18;;;;;;;21.68;34.85;96087.09;5008222;28;20491;-81
2022/04/13 08:55:01;;;;;;;9.48;5.35;;;;;;;21.80;33.77;96084.41;5026984;28;20048;-83
2022/04/13 08:57:30;;;;;;;8.32;4.47;;;;;;;22.09;34.86;96085.31;5036508;28;20047;-80
2022/04/13 09:00:08;;;;;;;7.70;4.32;;;;;;;22.85;33.41;96085.22;5011919;28;20033;-81
2022/04/13 09:03:15;;;;;;;8.18;4.68;;;;;;;23.71;32.08;96084.06;5004230;28;20556;-82
2022/04/13 09:05:43;;;;;;;11.45;4.72;;;;;;;22.16;35.39;96093.25;5008676;28;20025;-81
2022/04/13 09:08:19;;;;;;;14.30;5.20;;;;;;;22.48;35.75;96096.31;5005331;28;20028;-81
2022/04/13 09:10:47;;;;;;;8.50;4.43;;;;;;;21.73;36.73;96095.25;5020322;28;20072;-81
2022/04/13 09:13:13;;;;;;;11.80;4.70;;;;;;;21.88;37.93;96094.75;5002773;28;20558;-80
2022/04/13 09:15:41;;;;;;;8.35;4.43;;;;;;;22.95;36.34;96082.78;5005639;28;20036;-81
2022/04/13 09:18:09;;;;;;;7.20;4.47;;;;;;;23.02;35.73;96083.44;5006243;28;20048;-80
2022/04/13 09:20:36;;;;;;;10.70;4.43;;;;;;;22.61;36.79;96089.88;5002069;28;20056;-80
2022/04/13 09:23:03;;;;;;;9.25;3.70;;;;;;;22.81;36.85;96083.03;5009931;28;20041;-80
2022/04/13 09:25:33;;;;;;;8.48;3.78;;;;;;;23.56;36.39;96081.09;5014943;28;20041;-80
2022/04/13 09:28:00;;;;;;;7.28;3.60;;;;;;;23.02;36.08;96083.44;5025451;28;20030;-81
2022/04/13 09:30:27;;;;;;;11.27;4.60;;;;;;;23.21;35.64;96082.16;5021770;28;20045;-80
2022/04/13 09:32:53;;;;;;;7.97;3.92;;;;;;;23.65;35.07;96085.00;5037720;28;20032;-80
2022/04/13 09:35:20;;;;;;;6.20;3.78;;;;;;;23.46;35.23;96081.75;5003809;28;20048;-80
2022/04/13 09:37:46;;;;;;;7.05;4.18;;;;;;;24.57;34.26;96078.22;5004209;28;20036;-80
2022/04/13 09:40:30;;;;;;;8.85;4.47;;;;;;;24.20;33.91;96078.00;5022461;28;20039;-82
2022/04/13 09:43:07;;;;;;;8.35;4.13;;;;;;;22.68;36.25;96080.63;5021544;28;20033;-83
2022/04/13 09:45:59;;;;;;;7.43;4.53;;;;;;;23.75;34.63;96082.50;5052679;28;20393;-81
2022/04/13 09:48:26;;;;;;;7.65;3.60;;;;;;;23.38;34.97;96076.00;5016025;28;20045;-81
2022/04/13 09:50:57;;;;;;;6.97;3.65;;;;;;;24.31;33.25;96068.19;5004607;28;20029;-81
2022/04/13 09:53:23;;;;;;;8.57;4.20;;;;;;;24.41;33.91;96069.19;5022337;28;20471;-80
2022/04/13 09:55:56;;;;;;;7.70;4.15;;;;;;;24.48;33.69;96070.84;5023960;28;20142;-81
2022/04/13 09:58:25;;;;;;;10.88;5.15;;;;;;;24.54;33.34;96069.84;5021526;28;20091;-81
2022/04/13 10:00:55;;;;;;;8.98;5.13;;;;;;;24.41;33.40;96069.19;5014141;28;20036;-81
2022/04/13 10:03:24;;;;;;;6.72;3.38;;;;;;;25.10;31.65;96062.34;5010347;28;20619;-81
2022/04/13 10:05:52;;;;;;;7.95;3.42;;;;;;;24.53;32.15;96066.34;5046866;28;20029;-79
2022/04/13 10:08:23;;;;;;;7.20;3.45;;;;;;;24.18;31.99;96059.44;5033573;28;20037;-81
2022/04/13 10:10:52;;;;;;;7.25;3.63;;;;;;;24.22;31.71;96057.88;5048753;28;20044;-84
2022/04/13 10:13:43;;;;;;;8.52;3.53;;;;;;;24.77;29.60;96058.00;5043943;28;20033;-81
2022/04/13 10:16:10;;;;;;;8.77;3.75;;;;;;;24.22;32.67;96055.19;5022923;28;20033;-82
2022/04/13 10:18:53;;;;;;;6.65;3.92;;;;;;;25.37;31.50;96056.94;5021176;28;20067;-81
2022/04/13 10:21:40;;;;;;;8.95;3.63;;;;;;;24.82;33.00;96055.38;5007598;28;20040;-78
2022/04/13 10:24:08;;;;;;;12.73;4.70;;;;;;;24.88;32.16;96054.31;5021393;28;20065;-78
2022/04/13 10:29:28;;;;;;;8.90;4.68;;;;;;;25.14;31.85;96048.16;5040485;28;20043;-79
2022/04/13 10:32:12;;;;;;;7.93;5.28;;;;;;;25.06;32.11;96045.09;5009483;28;20041;-78
2022/04/13 10:34:40;;;;;;;10.45;5.68;;;;;;;25.71;28.87;96048.56;5006686;28;20060;-79
2022/04/13 10:37:07;;;;;;;9.30;4.90;;;;;;;25.35;30.53;96048.31;5024420;28;20037;-81
2022/04/13 10:39:34;;;;;;;9.80;4.22;;;;;;;26.44;29.21;96038.72;5020371;28;20048;-79
2022/04/13 10:42:03;;;;;;;8.27;4.53;;;;;;;26.17;30.16;96044.28;5025084;28;20034;-80
2022/04/13 10:45:04;;;;;;;7.70;4.70;;;;;;;25.63;30.80;96042.59;5022408;28;20037;-80
2022/04/13 10:48:13;;;;;;;9.35;4.93;;;;;;;26.14;29.88;96039.41;5013353;28;20025;-80
2022/04/13 10:50:48;;;;;;;9.48;4.75;;;;;;;26.12;28.64;96040.75;5040686;28;20077;-80
2022/04/13 10:53:30;;;;;;;7.18;4.38;;;;;;;26.43;28.79;96045.22;5006265;28;20040;-80
2022/04/13 10:56:01;;;;;;;8.97;4.47;;;;;;;26.66;27.79;96045.81;5020851;28;20772;-81
2022/04/13 10:58:52;;;;;;;9.85;4.80;;;;;;;26.04;28.76;96037.47;5024245;28;21726;-81
2022/04/13 11:01:20;;;;;;;6.82;3.60;;;;;;;25.90;29.83;96047.13;5024313;28;20533;-81
2022/04/13 11:03:47;;;;;;;7.53;4.10;;;;;;;26.22;28.44;96041.59;5020928;28;20767;-80
2022/04/13 11:06:13;;;;;;;7.60;3.92;;;;;;;26.16;28.80;96042.69;5041349;28;20092;-80
2022/04/13 11:09:00;;;;;;;8.95;3.38;;;;;;;25.69;28.19;96043.47;5016587;28;20237;-80
2022/04/13 11:11:28;;;;;;;7.13;3.20;;;;;;;25.33;27.60;96042.38;5003935;28;20040;-80
2022/04/13 11:13:54;;;;;;;7.15;3.38;;;;;;;25.56;27.87;96049.28;5029019;28;20031;-80
2022/04/13 11:16:23;;;;;;;6.00;3.08;;;;;;;25.36;28.29;96042.69;5031591;28;20029;-80
2022/04/13 11:19:01;;;;;;;7.25;3.63;;;;;;;25.76;28.00;96054.00;5027473;28;20037;-80
2022/04/13 11:21:29;;;;;;;5.10;2.20;;;;;;;25.96;25.32;96042.56;5017168;28;20056;-80
2022/04/13 11:23:55;;;;;;;6.53;3.13;;;;;;;26.22;25.66;96041.59;5029850;28;20021;-80
2022/04/13 11:26:47;;;;;;;4.95;1.90;;;;;;;26.51;24.21;96049.28;5038264;28;20045;-80
2022/04/13 11:29:21;;;;;;;6.15;3.10;;;;;;;25.81;26.84;96054.06;5007991;28;20083;-80
2022/04/13 11:32:02;;;;;;;6.78;2.88;;;;;;;25.58;26.12;96058.72;5030660;28;20067;-80
2022/04/13 11:34:29;;;;;;;7.05;2.85;;;;;;;26.06;26.13;96048.81;5037271;28;20041;-80
2022/04/13 11:36:59;;;;;;;5.30;2.78;;;;;;;25.56;26.63;96052.78;5035008;28;20029;-80
2022/04/13 11:39:44;;;;;;;6.35;2.72;;;;;;;25.20;26.34;96042.81;5024135;28;20029;-79
2022/04/13 11:42:39;;;;;;;7.97;3.15;;;;;;;25.44;27.04;96045.97;5032136;28;20025;-80